sensor_id;sensor_type;location;lat;lon;timestamp;P1;durP1;ratioP1;P2;durP2;ratioP2
62848;SDS011;48941;49.516;8.286;2023-02-15T00:01:54;70.55;;;23.17;;
62848;SDS011;48941;49.516;8.286;2023-02-15T00:04:23;65.35;;;21.80;;
62848;SDS011;48941;49.516;8.286;2023-02-15T00:07:16;83.50;;;22.63;;
62848;SDS011;48941;49.516;8.286;2023-02-15T00:09:46;75.47;;;21.80;;
62848;SDS011;48941;49.516;8.286;2023-02-15T00:12:14;74.28;;;20.52;;
62848;SDS011;48941;49.516;8.286;2023-02-15T00:14:43;75.22;;;24.38;;
62848;SDS011;48941;49.516;8.286;2023-02-15T00:17:11;68.40;;;22.10;;
62848;SDS011;48941;49.516;8.286;2023-02-15T00:19:39;78.70;;;21.50;;
62848;SDS011;48941;49.516;8.286;2023-02-15T00:22:07;73.68;;;22.67;;
62848;SDS011;48941;49.516;8.286;2023-02-15T00:24:36;71.53;;;22.27;;
62848;SDS011;48941;49.516;8.286;2023-02-15T00:27:04;77.28;;;22.88;;
62848;SDS011;48941;49.516;8.286;2023-02-15T00:29:32;71.85;;;22.98;;
62848;SDS011;48941;49.516;8.286;2023-02-15T00:31:59;80.18;;;22.67;;
62848;SDS011;48941;49.516;8.286;2023-02-15T00:34:27;66.85;;;22.35;;
62848;SDS011;48941;49.516;8.286;2023-02-15T00:36:55;91.93;;;21.02;;
62848;SDS011;48941;49.516;8.286;2023-02-15T00:39:23;61.70;;;21.20;;
62848;SDS011;48941;49.516;8.286;2023-02-15T00:41:53;67.40;;;21.35;;
62848;SDS011;48941;49.516;8.286;2023-02-15T00:44:20;74.60;;;21.95;;
62848;SDS011;48941;49.516;8.286;2023-02-15T00:46:48;65.97;;;21.92;;
62848;SDS011;48941;49.516;8.286;2023-02-15T00:49:23;69.75;;;21.35;;
62848;SDS011;48941;49.516;8.286;2023-02-15T00:51:51;71.22;;;22.02;;
62848;SDS011;48941;49.516;8.286;2023-02-15T00:54:19;67.43;;;20.88;;
62848;SDS011;48941;49.516;8.286;2023-02-15T00:56:47;74.78;;;20.63;;
62848;SDS011;48941;49.516;8.286;2023-02-15T00:59:18;95.15;;;22.73;;
62848;SDS011;48941;49.516;8.286;2023-02-15T01:01:45;75.38;;;22.45;;
62848;SDS011;48941;49.516;8.286;2023-02-15T01:04:13;75.53;;;22.48;;
62848;SDS011;48941;49.516;8.286;2023-02-15T01:06:41;70.20;;;21.05;;
62848;SDS011;48941;49.516;8.286;2023-02-15T01:09:09;74.60;;;21.65;;
62848;SDS011;48941;49.516;8.286;2023-02-15T01:11:38;80.93;;;21.20;;
62848;SDS011;48941;49.516;8.286;2023-02-15T01:14:08;64.57;;;21.35;;
62848;SDS011;48941;49.516;8.286;2023-02-15T01:16:38;69.75;;;22.10;;
62848;SDS011;48941;49.516;8.286;2023-02-15T01:19:06;66.35;;;22.63;;
62848;SDS011;48941;49.516;8.286;2023-02-15T01:21:34;55.25;;;21.40;;
62848;SDS011;48941;49.516;8.286;2023-02-15T01:24:02;57.92;;;21.90;;
62848;SDS011;48941;49.516;8.286;2023-02-15T01:26:30;63.83;;;22.95;;
62848;SDS011;48941;49.516;8.286;2023-02-15T01:28:57;75.15;;;21.77;;
62848;SDS011;48941;49.516;8.286;2023-02-15T01:31:25;65.78;;;22.25;;
62848;SDS011;48941;49.516;8.286;2023-02-15T01:33:54;75.72;;;22.05;;
62848;SDS011;48941;49.516;8.286;2023-02-15T01:36:22;71.60;;;22.30;;
62848;SDS011;48941;49.516;8.286;2023-02-15T01:38:50;70.20;;;22.38;;
62848;SDS011;48941;49.516;8.286;2023-02-15T01:41:18;62.55;;;21.75;;
62848;SDS011;48941;49.516;8.286;2023-02-15T01:43:50;61.92;;;22.52;;
62848;SDS011;48941;49.516;8.286;2023-02-15T01:46:21;65.63;;;21.02;;
62848;SDS011;48941;49.516;8.286;2023-02-15T01:48:55;69.53;;;22.27;;
62848;SDS011;48941;49.516;8.286;2023-02-15T01:51:28;80.03;;;22.50;;
62848;SDS011;48941;49.516;8.286;2023-02-15T01:54:02;70.68;;;22.08;;
62848;SDS011;48941;49.516;8.286;2023-02-15T01:56:37;85.38;;;21.85;;
62848;SDS011;48941;49.516;8.286;2023-02-15T01:59:07;71.75;;;21.15;;
62848;SDS011;48941;49.516;8.286;2023-02-15T02:01:38;58.20;;;20.75;;
62848;SDS011;48941;49.516;8.286;2023-02-15T02:04:09;65.88;;;22.65;;
62848;SDS011;48941;49.516;8.286;2023-02-15T02:06:42;67.97;;;23.83;;
62848;SDS011;48941;49.516;8.286;2023-02-15T02:09:13;67.85;;;23.10;;
62848;SDS011;48941;49.516;8.286;2023-02-15T02:11:42;55.00;;;21.08;;
62848;SDS011;48941;49.516;8.286;2023-02-15T02:14:13;61.40;;;21.13;;
62848;SDS011;48941;49.516;8.286;2023-02-15T02:16:43;61.72;;;21.13;;
62848;SDS011;48941;49.516;8.286;2023-02-15T02:19:32;57.58;;;21.70;;
62848;SDS011;48941;49.516;8.286;2023-02-15T02:25:19;63.13;;;20.75;;
62848;SDS011;48941;49.516;8.286;2023-02-15T02:27:56;55.90;;;20.85;;
62848;SDS011;48941;49.516;8.286;2023-02-15T02:30:44;56.63;;;20.83;;
62848;SDS011;48941;49.516;8.286;2023-02-15T02:33:29;59.50;;;20.05;;
62848;SDS011;48941;49.516;8.286;2023-02-15T02:36:10;58.97;;;19.83;;
62848;SDS011;48941;49.516;8.286;2023-02-15T02:38:52;49.05;;;18.02;;
62848;SDS011;48941;49.516;8.286;2023-02-15T02:41:35;47.33;;;18.27;;
62848;SDS011;48941;49.516;8.286;2023-02-15T02:44:10;48.38;;;19.60;;
62848;SDS011;48941;49.516;8.286;2023-02-15T02:46:45;55.03;;;18.67;;
62848;SDS011;48941;49.516;8.286;2023-02-15T02:49:28;50.92;;;19.52;;
62848;SDS011;48941;49.516;8.286;2023-02-15T02:52:00;54.10;;;18.53;;
62848;SDS011;48941;49.516;8.286;2023-02-15T02:54:28;60.65;;;20.27;;
62848;SDS011;48941;49.516;8.286;2023-02-15T02:56:57;46.72;;;17.17;;
62848;SDS011;48941;49.516;8.286;2023-02-15T02:59:29;49.10;;;18.75;;
62848;SDS011;48941;49.516;8.286;2023-02-15T03:02:01;44.15;;;17.38;;
62848;SDS011;48941;49.516;8.286;2023-02-15T03:04:40;50.28;;;19.13;;
62848;SDS011;48941;49.516;8.286;2023-02-15T03:07:12;51.50;;;19.10;;
62848;SDS011;48941;49.516;8.286;2023-02-15T03:09:48;43.25;;;16.65;;
62848;SDS011;48941;49.516;8.286;2023-02-15T03:12:19;43.35;;;17.25;;
62848;SDS011;48941;49.516;8.286;2023-02-15T03:14:50;49.97;;;19.10;;
62848;SDS011;48941;49.516;8.286;2023-02-15T03:17:21;46.58;;;18.63;;
62848;SDS011;48941;49.516;8.286;2023-02-15T03:19:52;48.65;;;18.25;;
62848;SDS011;48941;49.516;8.286;2023-02-15T03:22:26;42.10;;;17.65;;
62848;SDS011;48941;49.516;8.286;2023-02-15T03:24:58;45.17;;;17.27;;
62848;SDS011;48941;49.516;8.286;2023-02-15T03:27:33;42.33;;;17.23;;
62848;SDS011;48941;49.516;8.286;2023-02-15T03:30:05;52.53;;;19.23;;
62848;SDS011;48941;49.516;8.286;2023-02-15T03:32:34;46.90;;;17.83;;
62848;SDS011;48941;49.516;8.286;2023-02-15T03:35:07;43.50;;;17.35;;
62848;SDS011;48941;49.516;8.286;2023-02-15T03:37:36;44.10;;;17.40;;
62848;SDS011;48941;49.516;8.286;2023-02-15T03:40:06;49.83;;;18.42;;
62848;SDS011;48941;49.516;8.286;2023-02-15T03:43:10;43.75;;;16.40;;
62848;SDS011;48941;49.516;8.286;2023-02-15T03:45:44;48.35;;;18.23;;
62848;SDS011;48941;49.516;8.286;2023-02-15T03:48:22;50.85;;;18.48;;
62848;SDS011;48941;49.516;8.286;2023-02-15T03:50:55;49.17;;;18.83;;
62848;SDS011;48941;49.516;8.286;2023-02-15T03:53:45;50.65;;;18.15;;
62848;SDS011;48941;49.516;8.286;2023-02-15T03:56:14;50.22;;;17.95;;
62848;SDS011;48941;49.516;8.286;2023-02-15T03:58:42;54.90;;;19.17;;
62848;SDS011;48941;49.516;8.286;2023-02-15T04:01:29;43.78;;;16.98;;
62848;SDS011;48941;49.516;8.286;2023-02-15T04:04:20;42.78;;;17.65;;
62848;SDS011;48941;49.516;8.286;2023-02-15T04:06:52;48.03;;;18.65;;
62848;SDS011;48941;49.516;8.286;2023-02-15T04:09:20;51.28;;;17.70;;
62848;SDS011;48941;49.516;8.286;2023-02-15T04:12:05;48.75;;;18.15;;
62848;SDS011;48941;49.516;8.286;2023-02-15T04:14:33;46.30;;;18.15;;
62848;SDS011;48941;49.516;8.286;2023-02-15T04:17:18;46.55;;;16.48;;
62848;SDS011;48941;49.516;8.286;2023-02-15T04:19:46;46.20;;;17.75;;
62848;SDS011;48941;49.516;8.286;2023-02-15T04:22:32;40.53;;;15.90;;
62848;SDS011;48941;49.516;8.286;2023-02-15T04:25:17;42.47;;;16.88;;
62848;SDS011;48941;49.516;8.286;2023-02-15T04:27:47;40.00;;;16.20;;
62848;SDS011;48941;49.516;8.286;2023-02-15T04:30:16;44.80;;;16.10;;
62848;SDS011;48941;49.516;8.286;2023-02-15T04:32:45;34.55;;;15.32;;
62848;SDS011;48941;49.516;8.286;2023-02-15T04:35:14;35.67;;;15.90;;
62848;SDS011;48941;49.516;8.286;2023-02-15T04:37:44;35.17;;;14.20;;
62848;SDS011;48941;49.516;8.286;2023-02-15T04:40:12;33.58;;;14.52;;
62848;SDS011;48941;49.516;8.286;2023-02-15T04:42:45;36.63;;;14.43;;
62848;SDS011;48941;49.516;8.286;2023-02-15T04:45:14;36.03;;;15.35;;
62848;SDS011;48941;49.516;8.286;2023-02-15T04:47:43;32.20;;;15.02;;
62848;SDS011;48941;49.516;8.286;2023-02-15T04:50:11;35.17;;;14.48;;
62848;SDS011;48941;49.516;8.286;2023-02-15T04:52:39;33.88;;;14.93;;
62848;SDS011;48941;49.516;8.286;2023-02-15T04:55:08;39.85;;;15.70;;
62848;SDS011;48941;49.516;8.286;2023-02-15T04:57:36;37.80;;;14.23;;
62848;SDS011;48941;49.516;8.286;2023-02-15T05:00:04;35.28;;;15.77;;
62848;SDS011;48941;49.516;8.286;2023-02-15T05:02:34;33.58;;;15.05;;
62848;SDS011;48941;49.516;8.286;2023-02-15T05:05:02;38.85;;;14.77;;
62848;SDS011;48941;49.516;8.286;2023-02-15T05:07:30;34.83;;;14.73;;
62848;SDS011;48941;49.516;8.286;2023-02-15T05:09:58;32.15;;;14.63;;
62848;SDS011;48941;49.516;8.286;2023-02-15T05:12:27;31.80;;;14.68;;
62848;SDS011;48941;49.516;8.286;2023-02-15T05:14:55;33.20;;;15.20;;
62848;SDS011;48941;49.516;8.286;2023-02-15T05:17:22;33.97;;;13.95;;
62848;SDS011;48941;49.516;8.286;2023-02-15T05:19:50;33.25;;;14.45;;
62848;SDS011;48941;49.516;8.286;2023-02-15T05:22:18;35.85;;;15.23;;
62848;SDS011;48941;49.516;8.286;2023-02-15T05:24:46;35.00;;;15.38;;
62848;SDS011;48941;49.516;8.286;2023-02-15T05:27:32;35.03;;;14.80;;
62848;SDS011;48941;49.516;8.286;2023-02-15T05:30:18;37.53;;;15.98;;
62848;SDS011;48941;49.516;8.286;2023-02-15T05:32:45;33.53;;;15.00;;
62848;SDS011;48941;49.516;8.286;2023-02-15T05:35:14;33.75;;;14.88;;
62848;SDS011;48941;49.516;8.286;2023-02-15T05:37:43;36.08;;;15.00;;
62848;SDS011;48941;49.516;8.286;2023-02-15T05:40:11;33.10;;;14.10;;
62848;SDS011;48941;49.516;8.286;2023-02-15T05:42:40;32.67;;;15.15;;
62848;SDS011;48941;49.516;8.286;2023-02-15T05:45:08;33.67;;;15.35;;
62848;SDS011;48941;49.516;8.286;2023-02-15T05:47:36;33.83;;;15.15;;
62848;SDS011;48941;49.516;8.286;2023-02-15T05:50:04;29.90;;;14.10;;
62848;SDS011;48941;49.516;8.286;2023-02-15T05:52:33;33.65;;;15.32;;
62848;SDS011;48941;49.516;8.286;2023-02-15T05:55:01;33.95;;;14.73;;
62848;SDS011;48941;49.516;8.286;2023-02-15T05:57:30;37.60;;;15.57;;
62848;SDS011;48941;49.516;8.286;2023-02-15T06:00:00;35.53;;;15.23;;
62848;SDS011;48941;49.516;8.286;2023-02-15T06:02:32;36.47;;;16.65;;
62848;SDS011;48941;49.516;8.286;2023-02-15T06:05:00;37.22;;;15.77;;
62848;SDS011;48941;49.516;8.286;2023-02-15T06:07:28;40.63;;;15.85;;
62848;SDS011;48941;49.516;8.286;2023-02-15T06:09:56;32.63;;;14.90;;
62848;SDS011;48941;49.516;8.286;2023-02-15T06:12:24;36.88;;;14.18;;
62848;SDS011;48941;49.516;8.286;2023-02-15T06:14:52;33.42;;;15.38;;
62848;SDS011;48941;49.516;8.286;2023-02-15T06:17:21;31.45;;;14.95;;
62848;SDS011;48941;49.516;8.286;2023-02-15T06:19:49;32.97;;;15.10;;
62848;SDS011;48941;49.516;8.286;2023-02-15T06:22:16;32.75;;;14.65;;
62848;SDS011;48941;49.516;8.286;2023-02-15T06:24:44;32.60;;;15.63;;
62848;SDS011;48941;49.516;8.286;2023-02-15T06:27:12;30.40;;;14.88;;
62848;SDS011;48941;49.516;8.286;2023-02-15T06:29:41;45.65;;;16.27;;
62848;SDS011;48941;49.516;8.286;2023-02-15T06:32:09;33.72;;;15.50;;
62848;SDS011;48941;49.516;8.286;2023-02-15T06:34:38;33.90;;;15.75;;
62848;SDS011;48941;49.516;8.286;2023-02-15T06:37:06;36.05;;;15.73;;
62848;SDS011;48941;49.516;8.286;2023-02-15T06:39:34;37.40;;;15.35;;
62848;SDS011;48941;49.516;8.286;2023-02-15T06:42:02;36.85;;;15.77;;
62848;SDS011;48941;49.516;8.286;2023-02-15T06:44:30;30.02;;;14.32;;
62848;SDS011;48941;49.516;8.286;2023-02-15T06:46:58;30.30;;;14.65;;
62848;SDS011;48941;49.516;8.286;2023-02-15T06:49:25;31.80;;;13.95;;
62848;SDS011;48941;49.516;8.286;2023-02-15T06:51:54;28.70;;;13.95;;
62848;SDS011;48941;49.516;8.286;2023-02-15T06:54:22;28.40;;;13.43;;
62848;SDS011;48941;49.516;8.286;2023-02-15T06:56:50;25.45;;;12.77;;
62848;SDS011;48941;49.516;8.286;2023-02-15T06:59:18;29.15;;;14.13;;
62848;SDS011;48941;49.516;8.286;2023-02-15T07:01:46;30.67;;;13.10;;
62848;SDS011;48941;49.516;8.286;2023-02-15T07:04:14;27.25;;;12.80;;
62848;SDS011;48941;49.516;8.286;2023-02-15T07:06:41;28.13;;;14.05;;
62848;SDS011;48941;49.516;8.286;2023-02-15T07:09:10;30.45;;;13.80;;
62848;SDS011;48941;49.516;8.286;2023-02-15T07:11:40;27.60;;;13.50;;
62848;SDS011;48941;49.516;8.286;2023-02-15T07:14:25;28.77;;;13.23;;
62848;SDS011;48941;49.516;8.286;2023-02-15T07:16:54;32.67;;;13.98;;
62848;SDS011;48941;49.516;8.286;2023-02-15T07:19:24;29.67;;;14.63;;
62848;SDS011;48941;49.516;8.286;2023-02-15T07:21:52;28.42;;;13.07;;
62848;SDS011;48941;49.516;8.286;2023-02-15T07:24:22;26.33;;;13.20;;
62848;SDS011;48941;49.516;8.286;2023-02-15T07:26:51;29.58;;;13.23;;
62848;SDS011;48941;49.516;8.286;2023-02-15T07:29:19;27.00;;;13.07;;
62848;SDS011;48941;49.516;8.286;2023-02-15T07:31:47;31.25;;;14.18;;
62848;SDS011;48941;49.516;8.286;2023-02-15T07:34:15;30.55;;;15.13;;
62848;SDS011;48941;49.516;8.286;2023-02-15T07:36:43;32.00;;;14.35;;
62848;SDS011;48941;49.516;8.286;2023-02-15T07:39:12;28.65;;;14.07;;
62848;SDS011;48941;49.516;8.286;2023-02-15T07:41:41;33.15;;;13.85;;
62848;SDS011;48941;49.516;8.286;2023-02-15T07:44:10;26.60;;;13.23;;
62848;SDS011;48941;49.516;8.286;2023-02-15T07:46:38;25.00;;;12.88;;
62848;SDS011;48941;49.516;8.286;2023-02-15T07:49:06;28.83;;;12.50;;
62848;SDS011;48941;49.516;8.286;2023-02-15T07:51:34;28.17;;;13.23;;
62848;SDS011;48941;49.516;8.286;2023-02-15T07:54:02;30.23;;;12.98;;
62848;SDS011;48941;49.516;8.286;2023-02-15T07:56:30;31.95;;;14.80;;
62848;SDS011;48941;49.516;8.286;2023-02-15T07:59:02;27.98;;;13.88;;
62848;SDS011;48941;49.516;8.286;2023-02-15T08:01:31;28.30;;;13.55;;
62848;SDS011;48941;49.516;8.286;2023-02-15T08:04:01;35.40;;;14.02;;
62848;SDS011;48941;49.516;8.286;2023-02-15T08:06:30;29.85;;;13.20;;
62848;SDS011;48941;49.516;8.286;2023-02-15T08:08:59;30.55;;;12.93;;
62848;SDS011;48941;49.516;8.286;2023-02-15T08:11:28;25.38;;;13.45;;
62848;SDS011;48941;49.516;8.286;2023-02-15T08:14:02;27.13;;;12.73;;
62848;SDS011;48941;49.516;8.286;2023-02-15T08:16:31;28.90;;;13.95;;
62848;SDS011;48941;49.516;8.286;2023-02-15T08:19:02;26.30;;;13.00;;
62848;SDS011;48941;49.516;8.286;2023-02-15T08:21:31;26.38;;;13.68;;
62848;SDS011;48941;49.516;8.286;2023-02-15T08:24:00;27.60;;;13.85;;
62848;SDS011;48941;49.516;8.286;2023-02-15T08:26:28;30.35;;;13.85;;
62848;SDS011;48941;49.516;8.286;2023-02-15T08:28:57;34.10;;;13.10;;
62848;SDS011;48941;49.516;8.286;2023-02-15T08:31:30;30.52;;;14.32;;
62848;SDS011;48941;49.516;8.286;2023-02-15T08:33:58;29.67;;;14.20;;
62848;SDS011;48941;49.516;8.286;2023-02-15T08:36:27;35.22;;;14.25;;
62848;SDS011;48941;49.516;8.286;2023-02-15T08:38:57;28.65;;;13.32;;
62848;SDS011;48941;49.516;8.286;2023-02-15T08:41:26;27.88;;;13.55;;
62848;SDS011;48941;49.516;8.286;2023-02-15T08:43:57;32.15;;;14.75;;
62848;SDS011;48941;49.516;8.286;2023-02-15T08:46:26;30.63;;;13.85;;
62848;SDS011;48941;49.516;8.286;2023-02-15T08:48:57;32.85;;;14.02;;
62848;SDS011;48941;49.516;8.286;2023-02-15T08:51:25;32.63;;;15.23;;
62848;SDS011;48941;49.516;8.286;2023-02-15T08:53:55;31.73;;;14.45;;
62848;SDS011;48941;49.516;8.286;2023-02-15T08:56:25;29.13;;;14.32;;
62848;SDS011;48941;49.516;8.286;2023-02-15T08:58:54;33.05;;;14.63;;
62848;SDS011;48941;49.516;8.286;2023-02-15T09:01:23;34.90;;;15.10;;
62848;SDS011;48941;49.516;8.286;2023-02-15T09:03:55;35.00;;;15.63;;
62848;SDS011;48941;49.516;8.286;2023-02-15T09:06:25;32.73;;;14.73;;
62848;SDS011;48941;49.516;8.286;2023-02-15T09:08:54;29.38;;;14.82;;
62848;SDS011;48941;49.516;8.286;2023-02-15T09:11:23;27.35;;;14.38;;
62848;SDS011;48941;49.516;8.286;2023-02-15T09:13:53;33.60;;;14.88;;
62848;SDS011;48941;49.516;8.286;2023-02-15T09:16:23;26.30;;;13.40;;
62848;SDS011;48941;49.516;8.286;2023-02-15T09:18:52;36.03;;;15.82;;
62848;SDS011;48941;49.516;8.286;2023-02-15T09:21:22;30.33;;;14.57;;
62848;SDS011;48941;49.516;8.286;2023-02-15T09:23:52;33.85;;;14.20;;
62848;SDS011;48941;49.516;8.286;2023-02-15T09:26:24;35.72;;;17.13;;
62848;SDS011;48941;49.516;8.286;2023-02-15T09:28:52;27.55;;;15.00;;
62848;SDS011;48941;49.516;8.286;2023-02-15T09:31:23;28.55;;;14.30;;
62848;SDS011;48941;49.516;8.286;2023-02-15T09:33:52;30.50;;;15.43;;
62848;SDS011;48941;49.516;8.286;2023-02-15T09:36:29;29.05;;;14.32;;
62848;SDS011;48941;49.516;8.286;2023-02-15T09:39:00;30.38;;;14.43;;
62848;SDS011;48941;49.516;8.286;2023-02-15T09:41:40;27.27;;;14.68;;
62848;SDS011;48941;49.516;8.286;2023-02-15T09:44:26;29.92;;;13.82;;
62848;SDS011;48941;49.516;8.286;2023-02-15T09:47:06;29.33;;;13.80;;
62848;SDS011;48941;49.516;8.286;2023-02-15T09:49:49;26.70;;;14.27;;
62848;SDS011;48941;49.516;8.286;2023-02-15T09:52:30;27.27;;;13.65;;
62848;SDS011;48941;49.516;8.286;2023-02-15T09:55:15;27.98;;;13.75;;
62848;SDS011;48941;49.516;8.286;2023-02-15T09:57:56;29.65;;;14.63;;
62848;SDS011;48941;49.516;8.286;2023-02-15T10:00:35;28.48;;;14.18;;
62848;SDS011;48941;49.516;8.286;2023-02-15T10:03:16;28.55;;;13.52;;
62848;SDS011;48941;49.516;8.286;2023-02-15T10:05:59;30.55;;;14.35;;
62848;SDS011;48941;49.516;8.286;2023-02-15T10:08:53;33.90;;;15.25;;
62848;SDS011;48941;49.516;8.286;2023-02-15T10:11:33;32.08;;;15.32;;
62848;SDS011;48941;49.516;8.286;2023-02-15T10:14:21;33.42;;;15.88;;
62848;SDS011;48941;49.516;8.286;2023-02-15T10:17:18;34.08;;;16.17;;
62848;SDS011;48941;49.516;8.286;2023-02-15T10:20:00;33.75;;;16.40;;
62848;SDS011;48941;49.516;8.286;2023-02-15T10:22:44;29.30;;;14.57;;
62848;SDS011;48941;49.516;8.286;2023-02-15T10:25:30;27.73;;;14.10;;
62848;SDS011;48941;49.516;8.286;2023-02-15T10:28:05;35.60;;;14.48;;
62848;SDS011;48941;49.516;8.286;2023-02-15T10:30:40;29.98;;;15.02;;
62848;SDS011;48941;49.516;8.286;2023-02-15T10:33:15;32.58;;;14.60;;
62848;SDS011;48941;49.516;8.286;2023-02-15T10:35:55;30.02;;;14.73;;
62848;SDS011;48941;49.516;8.286;2023-02-15T10:38:34;32.35;;;15.02;;
62848;SDS011;48941;49.516;8.286;2023-02-15T10:41:12;36.75;;;16.50;;
62848;SDS011;48941;49.516;8.286;2023-02-15T10:43:57;35.28;;;15.77;;
62848;SDS011;48941;49.516;8.286;2023-02-15T10:46:36;35.35;;;15.68;;
62848;SDS011;48941;49.516;8.286;2023-02-15T10:49:22;40.38;;;17.08;;
62848;SDS011;48941;49.516;8.286;2023-02-15T10:52:14;34.00;;;15.98;;
62848;SDS011;48941;49.516;8.286;2023-02-15T10:54:56;35.50;;;17.50;;
62848;SDS011;48941;49.516;8.286;2023-02-15T10:57:33;36.80;;;16.70;;
62848;SDS011;48941;49.516;8.286;2023-02-15T11:00:16;39.47;;;17.40;;
62848;SDS011;48941;49.516;8.286;2023-02-15T11:05:50;37.88;;;17.67;;
62848;SDS011;48941;49.516;8.286;2023-02-15T11:08:29;33.33;;;15.88;;
62848;SDS011;48941;49.516;8.286;2023-02-15T11:11:02;38.50;;;16.92;;
62848;SDS011;48941;49.516;8.286;2023-02-15T11:13:37;38.33;;;17.77;;
62848;SDS011;48941;49.516;8.286;2023-02-15T11:16:07;37.35;;;17.27;;
62848;SDS011;48941;49.516;8.286;2023-02-15T11:18:45;40.85;;;17.17;;
62848;SDS011;48941;49.516;8.286;2023-02-15T11:21:20;40.40;;;17.92;;
62848;SDS011;48941;49.516;8.286;2023-02-15T11:23:51;43.67;;;19.00;;
62848;SDS011;48941;49.516;8.286;2023-02-15T11:26:21;44.45;;;18.88;;
62848;SDS011;48941;49.516;8.286;2023-02-15T11:28:58;47.05;;;19.63;;
62848;SDS011;48941;49.516;8.286;2023-02-15T11:31:34;38.55;;;17.70;;
62848;SDS011;48941;49.516;8.286;2023-02-15T11:34:12;44.10;;;19.48;;
62848;SDS011;48941;49.516;8.286;2023-02-15T11:36:45;39.92;;;18.33;;
62848;SDS011;48941;49.516;8.286;2023-02-15T11:39:17;39.47;;;18.60;;
62848;SDS011;48941;49.516;8.286;2023-02-15T11:41:49;44.08;;;19.15;;
62848;SDS011;48941;49.516;8.286;2023-02-15T11:44:22;44.40;;;19.42;;
62848;SDS011;48941;49.516;8.286;2023-02-15T11:46:53;41.40;;;18.90;;
62848;SDS011;48941;49.516;8.286;2023-02-15T11:49:22;49.42;;;20.63;;
62848;SDS011;48941;49.516;8.286;2023-02-15T11:51:52;44.97;;;19.35;;
62848;SDS011;48941;49.516;8.286;2023-02-15T11:54:23;54.25;;;22.50;;
62848;SDS011;48941;49.516;8.286;2023-02-15T11:56:54;50.22;;;21.70;;
62848;SDS011;48941;49.516;8.286;2023-02-15T11:59:27;52.25;;;20.42;;
62848;SDS011;48941;49.516;8.286;2023-02-15T12:01:59;46.63;;;20.45;;
62848;SDS011;48941;49.516;8.286;2023-02-15T12:04:28;50.47;;;20.65;;
62848;SDS011;48941;49.516;8.286;2023-02-15T12:07:02;41.45;;;20.05;;
62848;SDS011;48941;49.516;8.286;2023-02-15T12:09:40;48.88;;;22.42;;
62848;SDS011;48941;49.516;8.286;2023-02-15T12:12:22;56.92;;;22.83;;
62848;SDS011;48941;49.516;8.286;2023-02-15T12:14:54;55.22;;;23.55;;
62848;SDS011;48941;49.516;8.286;2023-02-15T12:17:23;49.58;;;21.88;;
62848;SDS011;48941;49.516;8.286;2023-02-15T12:19:54;48.28;;;19.77;;
62848;SDS011;48941;49.516;8.286;2023-02-15T12:22:25;51.25;;;22.13;;
62848;SDS011;48941;49.516;8.286;2023-02-15T12:24:56;52.75;;;23.40;;
62848;SDS011;48941;49.516;8.286;2023-02-15T12:27:27;52.15;;;21.45;;
62848;SDS011;48941;49.516;8.286;2023-02-15T12:29:58;51.50;;;22.75;;
62848;SDS011;48941;49.516;8.286;2023-02-15T12:32:30;47.78;;;20.45;;
62848;SDS011;48941;49.516;8.286;2023-02-15T12:35:01;50.00;;;22.58;;
62848;SDS011;48941;49.516;8.286;2023-02-15T12:37:37;55.83;;;23.25;;
62848;SDS011;48941;49.516;8.286;2023-02-15T12:40:18;57.75;;;23.80;;
62848;SDS011;48941;49.516;8.286;2023-02-15T12:42:48;50.85;;;22.33;;
62848;SDS011;48941;49.516;8.286;2023-02-15T12:45:21;51.45;;;22.48;;
62848;SDS011;48941;49.516;8.286;2023-02-15T12:48:08;53.60;;;22.55;;
62848;SDS011;48941;49.516;8.286;2023-02-15T12:50:43;51.33;;;23.15;;
62848;SDS011;48941;49.516;8.286;2023-02-15T12:53:15;56.30;;;23.08;;
62848;SDS011;48941;49.516;8.286;2023-02-15T12:55:50;52.10;;;23.25;;
62848;SDS011;48941;49.516;8.286;2023-02-15T12:58:20;53.95;;;23.20;;
62848;SDS011;48941;49.516;8.286;2023-02-15T13:01:04;53.17;;;23.95;;
62848;SDS011;48941;49.516;8.286;2023-02-15T13:03:40;50.38;;;23.00;;
62848;SDS011;48941;49.516;8.286;2023-02-15T13:06:25;53.70;;;22.60;;
62848;SDS011;48941;49.516;8.286;2023-02-15T13:08:54;46.40;;;21.63;;
62848;SDS011;48941;49.516;8.286;2023-02-15T13:11:24;52.10;;;22.75;;
62848;SDS011;48941;49.516;8.286;2023-02-15T13:13:57;54.72;;;22.83;;
62848;SDS011;48941;49.516;8.286;2023-02-15T13:16:30;52.95;;;22.77;;
62848;SDS011;48941;49.516;8.286;2023-02-15T13:19:02;54.10;;;24.20;;
62848;SDS011;48941;49.516;8.286;2023-02-15T13:21:33;58.30;;;25.17;;
62848;SDS011;48941;49.516;8.286;2023-02-15T13:24:05;62.53;;;24.57;;
62848;SDS011;48941;49.516;8.286;2023-02-15T13:26:42;62.08;;;26.17;;
62848;SDS011;48941;49.516;8.286;2023-02-15T13:29:12;52.97;;;22.38;;
62848;SDS011;48941;49.516;8.286;2023-02-15T13:31:47;58.85;;;24.75;;
62848;SDS011;48941;49.516;8.286;2023-02-15T13:34:17;61.50;;;25.17;;
62848;SDS011;48941;49.516;8.286;2023-02-15T13:36:51;50.80;;;23.60;;
62848;SDS011;48941;49.516;8.286;2023-02-15T13:39:28;61.65;;;26.33;;
62848;SDS011;48941;49.516;8.286;2023-02-15T13:42:04;59.55;;;25.20;;
62848;SDS011;48941;49.516;8.286;2023-02-15T13:44:56;51.80;;;22.17;;
62848;SDS011;48941;49.516;8.286;2023-02-15T13:47:37;53.97;;;23.05;;
62848;SDS011;48941;49.516;8.286;2023-02-15T13:50:19;54.35;;;23.45;;
62848;SDS011;48941;49.516;8.286;2023-02-15T13:55:32;50.20;;;22.10;;
62848;SDS011;48941;49.516;8.286;2023-02-15T13:58:17;51.75;;;22.52;;
62848;SDS011;48941;49.516;8.286;2023-02-15T14:00:59;58.15;;;23.67;;
62848;SDS011;48941;49.516;8.286;2023-02-15T14:03:50;56.50;;;24.25;;
62848;SDS011;48941;49.516;8.286;2023-02-15T14:06:30;60.80;;;23.70;;
62848;SDS011;48941;49.516;8.286;2023-02-15T14:09:11;58.97;;;25.48;;
62848;SDS011;48941;49.516;8.286;2023-02-15T14:11:49;61.55;;;26.52;;
62848;SDS011;48941;49.516;8.286;2023-02-15T14:14:30;61.50;;;25.40;;
62848;SDS011;48941;49.516;8.286;2023-02-15T14:17:13;62.55;;;27.33;;
62848;SDS011;48941;49.516;8.286;2023-02-15T14:19:50;63.97;;;27.35;;
62848;SDS011;48941;49.516;8.286;2023-02-15T14:22:24;62.75;;;25.65;;
62848;SDS011;48941;49.516;8.286;2023-02-15T14:25:11;59.03;;;24.83;;
62848;SDS011;48941;49.516;8.286;2023-02-15T14:27:49;60.08;;;25.08;;
62848;SDS011;48941;49.516;8.286;2023-02-15T14:30:24;55.47;;;24.67;;
62848;SDS011;48941;49.516;8.286;2023-02-15T14:35:28;57.28;;;23.02;;
62848;SDS011;48941;49.516;8.286;2023-02-15T14:37:58;62.42;;;25.20;;
62848;SDS011;48941;49.516;8.286;2023-02-15T14:40:34;53.38;;;23.92;;
62848;SDS011;48941;49.516;8.286;2023-02-15T14:43:31;54.80;;;23.40;;
62848;SDS011;48941;49.516;8.286;2023-02-15T14:46:07;58.38;;;24.85;;
62848;SDS011;48941;49.516;8.286;2023-02-15T14:48:42;53.75;;;24.58;;
62848;SDS011;48941;49.516;8.286;2023-02-15T14:57:26;62.17;;;26.33;;
62848;SDS011;48941;49.516;8.286;2023-02-15T15:00:12;51.03;;;22.95;;
62848;SDS011;48941;49.516;8.286;2023-02-15T15:03:00;47.60;;;21.27;;
62848;SDS011;48941;49.516;8.286;2023-02-15T15:05:31;43.30;;;20.98;;
62848;SDS011;48941;49.516;8.286;2023-02-15T15:08:01;45.70;;;21.45;;
62848;SDS011;48941;49.516;8.286;2023-02-15T15:10:41;51.58;;;21.85;;
62848;SDS011;48941;49.516;8.286;2023-02-15T15:16:24;48.50;;;22.30;;